sensor_id;sensor_type;location;lat;lon;timestamp;pressure;altitude;pressure_sealevel;temperature;humidity
70589;BME280;58152;49.202;18.744;2022-11-20T00:00:11;96954.59;;;0.21;66.70
70589;BME280;58152;49.202;18.744;2022-11-20T00:02:37;96948.59;;;0.19;66.55
70589;BME280;58152;49.202;18.744;2022-11-20T00:05:07;96939.22;;;0.14;66.28
70589;BME280;58152;49.202;18.744;2022-11-20T00:07:38;96956.34;;;0.18;65.81
70589;BME280;58152;49.202;18.744;2022-11-20T00:10:07;96948.59;;;0.18;66.37
70589;BME280;58152;49.202;18.744;2022-11-20T00:12:33;96941.75;;;0.17;66.71
70589;BME280;58152;49.202;18.744;2022-11-20T00:14:59;96945.19;;;0.19;66.26
70589;BME280;58152;49.202;18.744;2022-11-20T00:17:24;96946.88;;;0.20;66.08
70589;BME280;58152;49.202;18.744;2022-11-20T00:19:51;96945.13;;;0.22;66.12
70589;BME280;58152;49.202;18.744;2022-11-20T00:22:17;96946.81;;;0.24;65.99
70589;BME280;58152;49.202;18.744;2022-11-20T00:24:43;96945.13;;;0.23;66.31
70589;BME280;58152;49.202;18.744;2022-11-20T00:27:08;96960.56;;;0.27;66.14
70589;BME280;58152;49.202;18.744;2022-11-20T00:29:34;96968.28;;;0.30;66.26
70589;BME280;58152;49.202;18.744;2022-11-20T00:31:59;96966.59;;;0.25;66.27
70589;BME280;58152;49.202;18.744;2022-11-20T00:34:25;96964.84;;;0.29;66.01
70589;BME280;58152;49.202;18.744;2022-11-20T00:36:50;96957.97;;;0.27;66.36
70589;BME280;58152;49.202;18.744;2022-11-20T00:39:16;96957.16;;;0.24;66.79
70589;BME280;58152;49.202;18.744;2022-11-20T00:41:41;96952.81;;;0.27;66.18
70589;BME280;58152;49.202;18.744;2022-11-20T00:44:07;96955.38;;;0.27;66.29
70589;BME280;58152;49.202;18.744;2022-11-20T00:46:32;96957.13;;;0.28;65.86
70589;BME280;58152;49.202;18.744;2022-11-20T00:48:58;96961.38;;;0.30;66.25
70589;BME280;58152;49.202;18.744;2022-11-20T00:51:25;96952.81;;;0.28;66.17
70589;BME280;58152;49.202;18.744;2022-11-20T00:53:51;96954.53;;;0.28;66.42
70589;BME280;58152;49.202;18.744;2022-11-20T00:56:18;96964.81;;;0.32;66.18
70589;BME280;58152;49.202;18.744;2022-11-20T00:58:46;96955.34;;;0.33;66.27
70589;BME280;58152;49.202;18.744;2022-11-20T01:01:14;96952.75;;;0.31;66.71
70589;BME280;58152;49.202;18.744;2022-11-20T01:03:42;96946.75;;;0.31;66.73
70589;BME280;58152;49.202;18.744;2022-11-20T01:06:16;96956.19;;;0.32;66.48
70589;BME280;58152;49.202;18.744;2022-11-20T01:08:43;96945.94;;;0.25;66.91
70589;BME280;58152;49.202;18.744;2022-11-20T01:11:11;96938.22;;;0.22;66.47
70589;BME280;58152;49.202;18.744;2022-11-20T01:13:38;96937.38;;;0.23;66.82
70589;BME280;58152;49.202;18.744;2022-11-20T01:18:42;96932.22;;;0.22;67.18
70589;BME280;58152;49.202;18.744;2022-11-20T01:21:16;96933.06;;;0.24;67.17
70589;BME280;58152;49.202;18.744;2022-11-20T01:23:43;96927.91;;;0.22;66.71
70589;BME280;58152;49.202;18.744;2022-11-20T01:26:14;96930.50;;;0.22;67.67
70589;BME280;58152;49.202;18.744;2022-11-20T01:28:43;96920.16;;;0.22;66.93
70589;BME280;58152;49.202;18.744;2022-11-20T01:31:18;96932.19;;;0.25;67.49
70589;BME280;58152;49.202;18.744;2022-11-20T01:33:46;96934.75;;;0.28;66.98
70589;BME280;58152;49.202;18.744;2022-11-20T01:36:12;96942.44;;;0.31;66.63
70589;BME280;58152;49.202;18.744;2022-11-20T01:38:38;96933.03;;;0.27;67.03
70589;BME280;58152;49.202;18.744;2022-11-20T01:41:04;96935.63;;;0.25;66.84
70589;BME280;58152;49.202;18.744;2022-11-20T01:43:30;96932.16;;;0.28;67.13
70589;BME280;58152;49.202;18.744;2022-11-20T01:48:42;96940.72;;;0.30;67.14
70589;BME280;58152;49.202;18.744;2022-11-20T01:51:18;96937.34;;;0.25;66.97
70589;BME280;58152;49.202;18.744;2022-11-20T01:53:45;96948.50;;;0.29;67.20
70589;BME280;58152;49.202;18.744;2022-11-20T01:56:12;96953.66;;;0.29;67.66
70589;BME280;58152;49.202;18.744;2022-11-20T01:58:44;96946.81;;;0.24;67.72
70589;BME280;58152;49.202;18.744;2022-11-20T02:01:12;96945.97;;;0.24;67.09
70589;BME280;58152;49.202;18.744;2022-11-20T02:03:39;96950.25;;;0.25;67.23
70589;BME280;58152;49.202;18.744;2022-11-20T02:08:38;96951.09;;;0.27;67.91
70589;BME280;58152;49.202;18.744;2022-11-20T02:11:03;96949.34;;;0.29;68.06
70589;BME280;58152;49.202;18.744;2022-11-20T02:13:29;96955.41;;;0.28;68.33
70589;BME280;58152;49.202;18.744;2022-11-20T02:16:28;96946.81;;;0.28;68.42
70589;BME280;58152;49.202;18.744;2022-11-20T02:18:55;96952.81;;;0.28;68.24
70589;BME280;58152;49.202;18.744;2022-11-20T02:24:01;96939.91;;;0.27;68.60
70589;BME280;58152;49.202;18.744;2022-11-20T02:26:34;96945.94;;;0.29;68.88
70589;BME280;58152;49.202;18.744;2022-11-20T02:29:02;96942.50;;;0.25;68.79
70589;BME280;58152;49.202;18.744;2022-11-20T02:31:29;96941.66;;;0.24;68.26
70589;BME280;58152;49.202;18.744;2022-11-20T02:33:58;96937.34;;;0.25;68.20
70589;BME280;58152;49.202;18.744;2022-11-20T02:36:26;96947.63;;;0.30;68.71
70589;BME280;58152;49.202;18.744;2022-11-20T02:38:55;96936.47;;;0.26;68.30
70589;BME280;58152;49.202;18.744;2022-11-20T02:41:21;96929.63;;;0.25;68.99
70589;BME280;58152;49.202;18.744;2022-11-20T02:43:47;96936.44;;;0.29;68.91
70589;BME280;58152;49.202;18.744;2022-11-20T02:46:12;96933.06;;;0.22;68.50
70589;BME280;58152;49.202;18.744;2022-11-20T02:48:38;96933.91;;;0.26;68.39
70589;BME280;58152;49.202;18.744;2022-11-20T02:51:04;96939.06;;;0.28;68.49
70589;BME280;58152;49.202;18.744;2022-11-20T02:53:29;96939.97;;;0.23;69.08
70589;BME280;58152;49.202;18.744;2022-11-20T02:55:55;96943.38;;;0.25;68.89
70589;BME280;58152;49.202;18.744;2022-11-20T02:58:20;96941.69;;;0.23;68.60
70589;BME280;58152;49.202;18.744;2022-11-20T03:00:46;96939.97;;;0.22;68.71
70589;BME280;58152;49.202;18.744;2022-11-20T03:03:11;96941.69;;;0.23;68.87
70589;BME280;58152;49.202;18.744;2022-11-20T03:05:37;96942.53;;;0.23;69.10
70589;BME280;58152;49.202;18.744;2022-11-20T03:08:02;96935.66;;;0.22;68.33
70589;BME280;58152;49.202;18.744;2022-11-20T03:10:28;96930.53;;;0.21;68.52
70589;BME280;58152;49.202;18.744;2022-11-20T03:12:55;96923.66;;;0.20;68.89
70589;BME280;58152;49.202;18.744;2022-11-20T03:15:24;96928.78;;;0.23;68.80
70589;BME280;58152;49.202;18.744;2022-11-20T03:17:53;96928.78;;;0.21;68.52
70589;BME280;58152;49.202;18.744;2022-11-20T03:20:19;96931.34;;;0.24;69.02
70589;BME280;58152;49.202;18.744;2022-11-20T03:22:45;96933.06;;;0.22;69.05
70589;BME280;58152;49.202;18.744;2022-11-20T03:25:10;96933.94;;;0.21;69.09
70589;BME280;58152;49.202;18.744;2022-11-20T03:27:36;96930.53;;;0.21;68.86
70589;BME280;58152;49.202;18.744;2022-11-20T03:30:02;96933.06;;;0.22;68.68
70589;BME280;58152;49.202;18.744;2022-11-20T03:32:28;96941.66;;;0.24;68.71
70589;BME280;58152;49.202;18.744;2022-11-20T03:34:53;96942.50;;;0.27;69.03
70589;BME280;58152;49.202;18.744;2022-11-20T03:37:19;96939.91;;;0.27;68.05
70589;BME280;58152;49.202;18.744;2022-11-20T03:39:44;96941.63;;;0.29;68.72
70589;BME280;58152;49.202;18.744;2022-11-20T03:42:10;96938.22;;;0.24;68.95
70589;BME280;58152;49.202;18.744;2022-11-20T03:44:54;96935.59;;;0.27;68.35
70589;BME280;58152;49.202;18.744;2022-11-20T03:47:20;96946.78;;;0.29;68.89
70589;BME280;58152;49.202;18.744;2022-11-20T03:49:46;96938.22;;;0.25;69.08
70589;BME280;58152;49.202;18.744;2022-11-20T03:52:11;96940.72;;;0.30;68.32
70589;BME280;58152;49.202;18.744;2022-11-20T03:54:37;96937.31;;;0.30;68.51
70589;BME280;58152;49.202;18.744;2022-11-20T03:57:02;96938.13;;;0.32;68.82
70589;BME280;58152;49.202;18.744;2022-11-20T03:59:28;96942.41;;;0.34;68.50
70589;BME280;58152;49.202;18.744;2022-11-20T04:01:53;96933.03;;;0.29;68.68
70589;BME280;58152;49.202;18.744;2022-11-20T04:04:19;96946.72;;;0.34;68.28
70589;BME280;58152;49.202;18.744;2022-11-20T04:06:44;96954.44;;;0.35;68.27
70589;BME280;58152;49.202;18.744;2022-11-20T04:09:10;96944.13;;;0.34;68.45
70589;BME280;58152;49.202;18.744;2022-11-20T04:11:37;96944.97;;;0.36;68.48
70589;BME280;58152;49.202;18.744;2022-11-20T04:14:05;96948.41;;;0.36;68.13
70589;BME280;58152;49.202;18.744;2022-11-20T04:16:34;96946.75;;;0.31;67.89
70589;BME280;58152;49.202;18.744;2022-11-20T04:19:01;96949.28;;;0.35;67.92
70589;BME280;58152;49.202;18.744;2022-11-20T04:21:27;96951.84;;;0.35;67.72
70589;BME280;58152;49.202;18.744;2022-11-20T04:23:54;96932.97;;;0.32;68.66
70589;BME280;58152;49.202;18.744;2022-11-20T04:26:20;96942.38;;;0.37;68.20
70589;BME280;58152;49.202;18.744;2022-11-20T04:28:47;96943.22;;;0.36;67.90
70589;BME280;58152;49.202;18.744;2022-11-20T04:31:17;96941.56;;;0.34;68.65
70589;BME280;58152;49.202;18.744;2022-11-20T04:33:43;96934.66;;;0.36;68.59
70589;BME280;58152;49.202;18.744;2022-11-20T04:36:16;96942.38;;;0.37;67.81
70589;BME280;58152;49.202;18.744;2022-11-20T04:38:43;96932.91;;;0.36;68.77
70589;BME280;58152;49.202;18.744;2022-11-20T04:41:15;96931.22;;;0.37;67.98
70589;BME280;58152;49.202;18.744;2022-11-20T04:43:41;96923.47;;;0.37;68.23
70589;BME280;58152;49.202;18.744;2022-11-20T04:46:06;96914.81;;;0.39;67.80
70589;BME280;58152;49.202;18.744;2022-11-20T04:48:32;96900.25;;;0.35;68.82
70589;BME280;58152;49.202;18.744;2022-11-20T04:50:57;96910.53;;;0.38;68.50
70589;BME280;58152;49.202;18.744;2022-11-20T04:53:27;96910.53;;;0.38;68.08
70589;BME280;58152;49.202;18.744;2022-11-20T04:55:59;96899.38;;;0.36;68.46
70589;BME280;58152;49.202;18.744;2022-11-20T04:58:24;96902.75;;;0.40;68.33
70589;BME280;58152;49.202;18.744;2022-11-20T05:00:50;96894.13;;;0.41;68.15
70589;BME280;58152;49.202;18.744;2022-11-20T05:03:17;96900.22;;;0.38;68.30
70589;BME280;58152;49.202;18.744;2022-11-20T05:05:42;96891.63;;;0.38;68.59
70589;BME280;58152;49.202;18.744;2022-11-20T05:08:08;96886.47;;;0.38;68.20
70589;BME280;58152;49.202;18.744;2022-11-20T05:10:33;96886.50;;;0.35;68.99
70589;BME280;58152;49.202;18.744;2022-11-20T05:12:58;96883.03;;;0.37;68.18
70589;BME280;58152;49.202;18.744;2022-11-20T05:15:24;96877.03;;;0.37;68.36
70589;BME280;58152;49.202;18.744;2022-11-20T05:17:50;96869.28;;;0.35;68.28
70589;BME280;58152;49.202;18.744;2022-11-20T05:20:17;96866.69;;;0.35;68.58
70589;BME280;58152;49.202;18.744;2022-11-20T05:22:43;96871.00;;;0.35;68.52
70589;BME280;58152;49.202;18.744;2022-11-20T05:25:09;96870.13;;;0.36;68.96
70589;BME280;58152;49.202;18.744;2022-11-20T05:27:35;96879.53;;;0.40;68.90
70589;BME280;58152;49.202;18.744;2022-11-20T05:30:02;96889.84;;;0.40;68.41
70589;BME280;58152;49.202;18.744;2022-11-20T05:32:30;96883.88;;;0.36;68.78
70589;BME280;58152;49.202;18.744;2022-11-20T05:34:56;96872.72;;;0.36;69.01
70589;BME280;58152;49.202;18.744;2022-11-20T05:37:22;96874.44;;;0.37;69.11
70589;BME280;58152;49.202;18.744;2022-11-20T05:39:47;96867.53;;;0.36;68.97
70589;BME280;58152;49.202;18.744;2022-11-20T05:42:13;96874.41;;;0.38;69.18
70589;BME280;58152;49.202;18.744;2022-11-20T05:45:00;96870.13;;;0.37;68.72
70589;BME280;58152;49.202;18.744;2022-11-20T05:47:27;96873.59;;;0.35;69.09
70589;BME280;58152;49.202;18.744;2022-11-20T05:49:53;96863.28;;;0.33;69.31
70589;BME280;58152;49.202;18.744;2022-11-20T05:52:19;96868.41;;;0.38;69.15
70589;BME280;58152;49.202;18.744;2022-11-20T05:54:48;96856.31;;;0.40;68.98
70589;BME280;58152;49.202;18.744;2022-11-20T05:57:14;96843.44;;;0.38;68.33
70589;BME280;58152;49.202;18.744;2022-11-20T05:59:40;96844.25;;;0.40;68.56
70589;BME280;58152;49.202;18.744;2022-11-20T06:02:06;96845.09;;;0.42;68.66
70589;BME280;58152;49.202;18.744;2022-11-20T06:04:31;96849.41;;;0.42;68.45
70589;BME280;58152;49.202;18.744;2022-11-20T06:06:57;96847.69;;;0.42;68.50
70589;BME280;58152;49.202;18.744;2022-11-20T06:09:22;96851.16;;;0.41;68.21
70589;BME280;58152;49.202;18.744;2022-11-20T06:11:48;96844.25;;;0.40;68.52
70589;BME280;58152;49.202;18.744;2022-11-20T06:14:13;96842.59;;;0.38;68.77
70589;BME280;58152;49.202;18.744;2022-11-20T06:16:39;96853.66;;;0.44;68.77
70589;BME280;58152;49.202;18.744;2022-11-20T06:19:07;96850.28;;;0.42;68.30
70589;BME280;58152;49.202;18.744;2022-11-20T06:21:32;96842.53;;;0.41;68.33
70589;BME280;58152;49.202;18.744;2022-11-20T06:23:58;96849.38;;;0.43;69.04
70589;BME280;58152;49.202;18.744;2022-11-20T06:26:26;96856.25;;;0.44;68.77
70589;BME280;58152;49.202;18.744;2022-11-20T06:28:53;96855.38;;;0.47;68.32
70589;BME280;58152;49.202;18.744;2022-11-20T06:31:21;96850.25;;;0.44;68.93
70589;BME280;58152;49.202;18.744;2022-11-20T06:33:47;96853.63;;;0.47;68.42
70589;BME280;58152;49.202;18.744;2022-11-20T06:36:14;96851.06;;;0.47;69.04
70589;BME280;58152;49.202;18.744;2022-11-20T06:38:40;96846.84;;;0.40;68.65
70589;BME280;58152;49.202;18.744;2022-11-20T06:41:08;96852.78;;;0.45;68.85
70589;BME280;58152;49.202;18.744;2022-11-20T06:43:35;96855.38;;;0.47;68.87
70589;BME280;58152;49.202;18.744;2022-11-20T06:46:01;96853.63;;;0.47;68.70
70589;BME280;58152;49.202;18.744;2022-11-20T06:48:48;96848.44;;;0.50;68.58
70589;BME280;58152;49.202;18.744;2022-11-20T06:51:17;96853.63;;;0.47;68.99
70589;BME280;58152;49.202;18.744;2022-11-20T06:53:43;96853.59;;;0.49;68.96
70589;BME280;58152;49.202;18.744;2022-11-20T06:56:09;96852.75;;;0.48;69.30
70589;BME280;58152;49.202;18.744;2022-11-20T06:58:35;96852.72;;;0.52;69.07
70589;BME280;58152;49.202;18.744;2022-11-20T07:01:06;96852.75;;;0.48;68.91
70589;BME280;58152;49.202;18.744;2022-11-20T07:03:32;96854.41;;;0.54;69.44
70589;BME280;58152;49.202;18.744;2022-11-20T07:06:00;96848.38;;;0.55;69.45
70589;BME280;58152;49.202;18.744;2022-11-20T07:08:25;96856.13;;;0.55;69.11
70589;BME280;58152;49.202;18.744;2022-11-20T07:10:51;96852.66;;;0.55;68.91
70589;BME280;58152;49.202;18.744;2022-11-20T07:13:17;96860.38;;;0.58;69.13
70589;BME280;58152;49.202;18.744;2022-11-20T07:15:45;96871.56;;;0.60;68.97
70589;BME280;58152;49.202;18.744;2022-11-20T07:18:10;96860.38;;;0.58;68.70
70589;BME280;58152;49.202;18.744;2022-11-20T07:20:42;96869.81;;;0.59;69.27
70589;BME280;58152;49.202;18.744;2022-11-20T07:23:10;96860.38;;;0.58;68.44
70589;BME280;58152;49.202;18.744;2022-11-20T07:25:36;96874.97;;;0.60;68.79
70589;BME280;58152;49.202;18.744;2022-11-20T07:28:01;96886.09;;;0.65;68.69
70589;BME280;58152;49.202;18.744;2022-11-20T07:30:28;96881.81;;;0.64;68.34
70589;BME280;58152;49.202;18.744;2022-11-20T07:32:54;96891.25;;;0.65;69.08
70589;BME280;58152;49.202;18.744;2022-11-20T07:35:21;96889.53;;;0.66;68.41
70589;BME280;58152;49.202;18.744;2022-11-20T07:37:47;96880.09;;;0.65;69.05
70589;BME280;58152;49.202;18.744;2022-11-20T07:40:14;96878.34;;;0.64;68.95
70589;BME280;58152;49.202;18.744;2022-11-20T07:42:50;96875.84;;;0.59;68.60
70589;BME280;58152;49.202;18.744;2022-11-20T07:45:28;96875.78;;;0.65;68.63
70589;BME280;58152;49.202;18.744;2022-11-20T07:48:05;96868.00;;;0.67;68.74
70589;BME280;58152;49.202;18.744;2022-11-20T07:50:32;96871.47;;;0.66;68.97
70589;BME280;58152;49.202;18.744;2022-11-20T07:53:02;96878.34;;;0.65;68.56
70589;BME280;58152;49.202;18.744;2022-11-20T07:55:39;96887.69;;;0.72;68.40
70589;BME280;58152;49.202;18.744;2022-11-20T07:58:04;96882.53;;;0.74;68.40
70589;BME280;58152;49.202;18.744;2022-11-20T08:00:30;96881.66;;;0.75;68.42
70589;BME280;58152;49.202;18.744;2022-11-20T08:02:56;96863.59;;;0.73;69.02
70589;BME280;58152;49.202;18.744;2022-11-20T08:05:21;96876.47;;;0.78;68.98
70589;BME280;58152;49.202;18.744;2022-11-20T08:07:47;96883.25;;;0.84;68.47
70589;BME280;58152;49.202;18.744;2022-11-20T08:10:14;96873.78;;;0.84;68.93
70589;BME280;58152;49.202;18.744;2022-11-20T08:12:51;96867.75;;;0.82;68.82
70589;BME280;58152;49.202;18.744;2022-11-20T08:15:37;96872.84;;;0.87;69.37
70589;BME280;58152;49.202;18.744;2022-11-20T08:18:05;96878.91;;;0.87;68.66
70589;BME280;58152;49.202;18.744;2022-11-20T08:20:31;96891.75;;;0.90;68.92
70589;BME280;58152;49.202;18.744;2022-11-20T08:23:03;96886.63;;;0.89;69.18
70589;BME280;58152;49.202;18.744;2022-11-20T08:25:29;96890.94;;;0.88;68.88
70589;BME280;58152;49.202;18.744;2022-11-20T08:27:59;96900.34;;;0.91;68.55
70589;BME280;58152;49.202;18.744;2022-11-20T08:30:25;96904.53;;;1.01;69.23
70589;BME280;58152;49.202;18.744;2022-11-20T08:32:51;96902.66;;;1.09;69.23
70589;BME280;58152;49.202;18.744;2022-11-20T08:35:16;96906.06;;;1.13;68.96
70589;BME280;58152;49.202;18.744;2022-11-20T08:37:48;96902.59;;;1.14;68.39
70589;BME280;58152;49.202;18.744;2022-11-20T08:40:16;96898.34;;;1.10;68.41
70589;BME280;58152;49.202;18.744;2022-11-20T08:42:53;96893.25;;;1.07;68.84
70589;BME280;58152;49.202;18.744;2022-11-20T08:45:19;96898.34;;;1.10;68.52
70589;BME280;58152;49.202;18.744;2022-11-20T08:47:47;96885.56;;;1.02;68.70
70589;BME280;58152;49.202;18.744;2022-11-20T08:50:16;96897.56;;;1.06;68.76
70589;BME280;58152;49.202;18.744;2022-11-20T08:52:45;96905.28;;;1.08;68.78
70589;BME280;58152;49.202;18.744;2022-11-20T08:55:11;96896.72;;;1.06;68.76
70589;BME280;58152;49.202;18.744;2022-11-20T08:57:37;96903.50;;;1.10;68.56
70589;BME280;58152;49.202;18.744;2022-11-20T09:00:06;96897.47;;;1.12;68.89
70589;BME280;58152;49.202;18.744;2022-11-20T09:02:32;96895.72;;;1.13;69.01
70589;BME280;58152;49.202;18.744;2022-11-20T09:04:58;96900.09;;;1.11;68.58
70589;BME280;58152;49.202;18.744;2022-11-20T09:10:53;96893.09;;;1.14;68.53
70589;BME280;58152;49.202;18.744;2022-11-20T09:13:27;96895.69;;;1.14;69.05
70589;BME280;58152;49.202;18.744;2022-11-20T09:16:24;96905.09;;;1.18;69.08
70589;BME280;58152;49.202;18.744;2022-11-20T09:19:05;96881.06;;;1.15;68.86
70589;BME280;58152;49.202;18.744;2022-11-20T09:31:43;96909.22;;;1.33;68.52
70589;BME280;58152;49.202;18.744;2022-11-20T09:34:09;96911.75;;;1.35;68.64
70589;BME280;58152;49.202;18.744;2022-11-20T09:36:35;96904.81;;;1.38;68.55
70589;BME280;58152;49.202;18.744;2022-11-20T09:39:03;96887.56;;;1.39;68.73
70589;BME280;58152;49.202;18.744;2022-11-20T09:47:03;96896.72;;;1.58;68.91
70589;BME280;58152;49.202;18.744;2022-11-20T09:55:24;96876.00;;;1.61;68.65
70589;BME280;58152;49.202;18.744;2022-11-20T09:57:57;96874.97;;;1.68;68.73
70589;BME280;58152;49.202;18.744;2022-11-20T10:00:24;96872.31;;;1.74;68.95
70589;BME280;58152;49.202;18.744;2022-11-20T10:03:01;96872.22;;;1.79;68.52
70589;BME280;58152;49.202;18.744;2022-11-20T10:05:51;96875.56;;;1.83;68.79
70589;BME280;58152;49.202;18.744;2022-11-20T10:12:20;96854.47;;;2.04;69.21
70589;BME280;58152;49.202;18.744;2022-11-20T10:17:53;96868.97;;;2.13;68.44
70589;BME280;58152;49.202;18.744;2022-11-20T10:33:57;96863.06;;;2.06;68.39
70589;BME280;58152;49.202;18.744;2022-11-20T10:36:28;96862.22;;;2.06;68.45
70589;BME280;58152;49.202;18.744;2022-11-20T10:38:59;96870.81;;;2.08;68.34
70589;BME280;58152;49.202;18.744;2022-11-20T10:41:30;96875.19;;;2.04;68.35
70589;BME280;58152;49.202;18.744;2022-11-20T10:46:44;96883.78;;;2.04;68.26
70589;BME280;58152;49.202;18.744;2022-11-20T10:49:36;96875.28;;;1.99;67.91
70589;BME280;58152;49.202;18.744;2022-11-20T11:00:34;96874.50;;;1.94;67.96
70589;BME280;58152;49.202;18.744;2022-11-20T11:03:00;96872.72;;;1.96;67.42
70589;BME280;58152;49.202;18.744;2022-11-20T11:05:48;96882.13;;;2.02;67.63
70589;BME280;58152;49.202;18.744;2022-11-20T11:08:17;96869.25;;;1.99;67.52
70589;BME280;58152;49.202;18.744;2022-11-20T11:13:28;96871.72;;;2.05;67.59
70589;BME280;58152;49.202;18.744;2022-11-20T11:15:55;96860.50;;;2.04;67.19
70589;BME280;58152;49.202;18.744;2022-11-20T11:20:51;96852.69;;;2.06;67.34
70589;BME280;58152;49.202;18.744;2022-11-20T11:23:38;96842.34;;;2.06;67.23
70589;BME280;58152;49.202;18.744;2022-11-20T11:26:17;96854.44;;;2.07;67.15
70589;BME280;58152;49.202;18.744;2022-11-20T11:28:59;96850.94;;;2.08;67.18
70589;BME280;58152;49.202;18.744;2022-11-20T11:31:33;96850.03;;;2.11;67.14
70589;BME280;58152;49.202;18.744;2022-11-20T11:34:16;96844.88;;;2.09;67.36
70589;BME280;58152;49.202;18.744;2022-11-20T11:36:56;96849.16;;;2.12;67.70
70589;BME280;58152;49.202;18.744;2022-11-20T11:39:23;96851.72;;;2.13;67.33
70589;BME280;58152;49.202;18.744;2022-11-20T11:41:58;96855.25;;;2.09;67.56
70589;BME280;58152;49.202;18.744;2022-11-20T11:44:33;96853.44;;;2.13;67.41
70589;BME280;58152;49.202;18.744;2022-11-20T11:47:24;96853.38;;;2.17;67.38
70589;BME280;58152;49.202;18.744;2022-11-20T11:53:23;96836.03;;;2.21;67.65
70589;BME280;58152;49.202;18.744;2022-11-20T11:55:46;96836.03;;;2.21;67.83
70589;BME280;58152;49.202;18.744;2022-11-20T11:58:24;96838.53;;;2.25;67.52
70589;BME280;58152;49.202;18.744;2022-11-20T12:01:07;96829.94;;;2.23;67.53
70589;BME280;58152;49.202;18.744;2022-11-20T12:03:38;96830.66;;;2.30;67.51
70589;BME280;58152;49.202;18.744;2022-11-20T12:08:57;96831.47;;;2.32;67.77
70589;BME280;58152;49.202;18.744;2022-11-20T12:14:53;96831.22;;;2.44;67.94
70589;BME280;58152;49.202;18.744;2022-11-20T12:17:36;96826.91;;;2.45;67.85
70589;BME280;58152;49.202;18.744;2022-11-20T12:29:36;96827.78;;;2.44;67.91
70589;BME280;58152;49.202;18.744;2022-11-20T12:32:30;96828.66;;;2.43;68.15
70589;BME280;58152;49.202;18.744;2022-11-20T12:41:05;96836.31;;;2.47;68.22
70589;BME280;58152;49.202;18.744;2022-11-20T12:43:54;96819.19;;;2.42;68.31
70589;BME280;58152;49.202;18.744;2022-11-20T12:46:45;96835.50;;;2.45;68.23
70589;BME280;58152;49.202;18.744;2022-11-20T12:54:44;96832.13;;;2.42;68.24
70589;BME280;58152;49.202;18.744;2022-11-20T12:57:34;96821.81;;;2.40;67.58
70589;BME280;58152;49.202;18.744;2022-11-20T13:00:14;96825.97;;;2.47;68.02
70589;BME280;58152;49.202;18.744;2022-11-20T13:03:06;96837.34;;;2.80;68.22
70589;BME280;58152;49.202;18.744;2022-11-20T13:08:39;96812.34;;;3.14;67.65
70589;BME280;58152;49.202;18.744;2022-11-20T13:11:19;96809.06;;;3.07;67.72
70589;BME280;58152;49.202;18.744;2022-11-20T13:14:11;96805.81;;;2.99;67.31
70589;BME280;58152;49.202;18.744;2022-11-20T13:16:54;96802.38;;;2.98;67.72
70589;BME280;58152;49.202;18.744;2022-11-20T13:19:26;96791.22;;;2.95;67.74
70589;BME280;58152;49.202;18.744;2022-11-20T13:21:53;96792.97;;;2.94;67.54
70589;BME280;58152;49.202;18.744;2022-11-20T13:26:45;96778.94;;;3.01;67.42
70589;BME280;58152;49.202;18.744;2022-11-20T13:29:16;96794.38;;;3.06;67.42
70589;BME280;58152;49.202;18.744;2022-11-20T13:31:45;96806.59;;;3.02;67.57
70589;BME280;58152;49.202;18.744;2022-11-20T13:34:14;96793.81;;;2.95;67.71
70589;BME280;58152;49.202;18.744;2022-11-20T13:36:57;96804.22;;;2.93;67.71
70589;BME280;58152;49.202;18.744;2022-11-20T13:39:26;96802.44;;;2.95;67.68
70589;BME280;58152;49.202;18.744;2022-11-20T13:41:58;96803.28;;;2.96;67.62
70589;BME280;58152;49.202;18.744;2022-11-20T13:44:38;96808.53;;;2.93;67.76
70589;BME280;58152;49.202;18.744;2022-11-20T13:47:04;96814.72;;;2.87;68.31
70589;BME280;58152;49.202;18.744;2022-11-20T13:49:45;96822.47;;;2.87;68.20
70589;BME280;58152;49.202;18.744;2022-11-20T13:52:39;96824.28;;;2.84;68.12
70589;BME280;58152;49.202;18.744;2022-11-20T13:55:45;96834.75;;;2.80;68.25
70589;BME280;58152;49.202;18.744;2022-11-20T14:01:48;96819.41;;;2.71;68.22
70589;BME280;58152;49.202;18.744;2022-11-20T14:04:19;96793.59;;;2.67;68.41
70589;BME280;58152;49.202;18.744;2022-11-20T14:06:46;96785.78;;;2.68;68.38
70589;BME280;58152;49.202;18.744;2022-11-20T14:11:51;96776.38;;;2.66;68.26
70589;BME280;58152;49.202;18.744;2022-11-20T14:14:19;96785.00;;;2.66;68.44
70589;BME280;58152;49.202;18.744;2022-11-20T14:16:47;96784.09;;;2.67;68.85
70589;BME280;58152;49.202;18.744;2022-11-20T14:19:28;96800.31;;;2.75;70.35
70589;BME280;58152;49.202;18.744;2022-11-20T14:22:18;96797.53;;;2.83;70.44
70589;BME280;58152;49.202;18.744;2022-11-20T14:24:44;96785.50;;;2.80;69.65
70589;BME280;58152;49.202;18.744;2022-11-20T14:27:28;96769.25;;;2.74;69.31
70589;BME280;58152;49.202;18.744;2022-11-20T14:29:54;96762.31;;;2.74;69.20
70589;BME280;58152;49.202;18.744;2022-11-20T14:32:25;96755.50;;;2.72;69.52
70589;BME280;58152;49.202;18.744;2022-11-20T14:34:59;96773.63;;;2.72;68.99
70589;BME280;58152;49.202;18.744;2022-11-20T14:37:28;96771.03;;;2.72;69.39
70589;BME280;58152;49.202;18.744;2022-11-20T14:39:58;96769.41;;;2.68;69.37
70589;BME280;58152;49.202;18.744;2022-11-20T14:42:29;96768.59;;;2.66;69.24
70589;BME280;58152;49.202;18.744;2022-11-20T14:44:57;96770.28;;;2.67;69.47
70589;BME280;58152;49.202;18.744;2022-11-20T14:47:26;96779.81;;;2.66;69.36
70589;BME280;58152;49.202;18.744;2022-11-20T14:49:53;96781.63;;;2.63;69.59
70589;BME280;58152;49.202;18.744;2022-11-20T14:52:24;96786.69;;;2.67;69.50
70589;BME280;58152;49.202;18.744;2022-11-20T14:57:34;96780.66;;;2.65;69.35
70589;BME280;58152;49.202;18.744;2022-11-20T15:00:17;96774.63;;;2.66;69.60
70589;BME280;58152;49.202;18.744;2022-11-20T15:02:48;96764.38;;;2.62;69.49
70589;BME280;58152;49.202;18.744;2022-11-20T15:05:14;96766.84;;;2.66;69.59
70589;BME280;58152;49.202;18.744;2022-11-20T15:07:46;96772.06;;;2.65;69.44
70589;BME280;58152;49.202;18.744;2022-11-20T15:14:02;96755.81;;;2.58;69.65